createdAt,value
2022-08-18T00:02:18.987Z,1.50
2022-08-18T00:05:05.758Z,1.20
2022-08-18T00:07:52.599Z,1.00
2022-08-18T00:10:41.348Z,1.40
2022-08-18T00:13:27.157Z,1.30
2022-08-18T00:16:12.466Z,1.20
2022-08-18T00:18:57.645Z,1.30
2022-08-18T00:21:43.065Z,1.20
2022-08-18T00:24:28.410Z,1.30
2022-08-18T00:27:13.858Z,1.20
2022-08-18T00:30:02.244Z,1.23
2022-08-18T00:32:54.023Z,1.40
2022-08-18T00:35:39.887Z,1.17
2022-08-18T00:38:25.599Z,1.23
2022-08-18T00:41:11.107Z,1.40
2022-08-18T00:43:58.523Z,1.10
2022-08-18T00:46:43.880Z,1.23
2022-08-18T00:49:29.276Z,1.30
2022-08-18T00:52:16.761Z,1.30
2022-08-18T00:55:04.118Z,1.17
2022-08-18T00:57:53.524Z,1.43
2022-08-18T01:00:39.237Z,1.33
2022-08-18T01:03:25.047Z,1.20
2022-08-18T01:06:36.044Z,1.20
2022-08-18T01:09:22.662Z,1.10
2022-08-18T01:12:27.931Z,1.30
2022-08-18T01:15:27.834Z,1.30
2022-08-18T01:18:33.526Z,1.40
2022-08-18T01:21:43.424Z,1.10
2022-08-18T01:24:52.881Z,1.27
2022-08-18T01:27:39.095Z,1.30
2022-08-18T01:30:25.845Z,1.10
2022-08-18T01:33:12.408Z,1.30
2022-08-18T01:36:00.756Z,1.13
2022-08-18T01:38:50.286Z,1.30
2022-08-18T01:41:35.972Z,1.20
2022-08-18T01:44:21.196Z,1.20
2022-08-18T01:47:06.598Z,1.20
2022-08-18T01:49:53.388Z,1.27
2022-08-18T01:52:39.920Z,1.20
2022-08-18T01:55:28.376Z,1.37
2022-08-18T01:58:14.089Z,1.33
2022-08-18T02:01:02.011Z,1.20
2022-08-18T02:03:52.693Z,1.20
2022-08-18T02:06:39.578Z,1.40
2022-08-18T02:09:31.750Z,1.20
2022-08-18T02:12:17.140Z,1.30
2022-08-18T02:15:02.864Z,1.50
2022-08-18T02:17:48.929Z,1.30
2022-08-18T02:20:34.278Z,1.17
2022-08-18T02:23:19.654Z,1.20
2022-08-18T02:26:07.907Z,1.33
2022-08-18T02:28:53.259Z,1.27
2022-08-18T02:31:38.714Z,1.20
2022-08-18T02:34:24.211Z,1.20
2022-08-18T02:37:14.842Z,1.20
2022-08-18T02:40:00.774Z,1.17
2022-08-18T02:42:46.804Z,1.20
2022-08-18T02:45:32.730Z,1.50
2022-08-18T02:48:24.305Z,1.30
2022-08-18T02:51:14.743Z,1.40
2022-08-18T02:54:00.404Z,1.27
2022-08-18T02:56:45.773Z,1.30
2022-08-18T02:59:31.735Z,1.30
2022-08-18T03:02:18.871Z,1.40
2022-08-18T03:05:05.153Z,1.50
2022-08-18T03:07:51.169Z,1.50
2022-08-18T03:10:37.093Z,1.50
2022-08-18T03:13:22.882Z,1.20
2022-08-18T03:16:08.366Z,1.40
2022-08-18T03:18:54.001Z,1.40
2022-08-18T03:21:39.354Z,1.40
2022-08-18T03:24:27.611Z,1.30
2022-08-18T03:27:13.052Z,1.30
2022-08-18T03:29:58.719Z,1.30
2022-08-18T03:32:45.761Z,1.17
2022-08-18T03:35:31.483Z,1.23
2022-08-18T03:38:16.668Z,1.20
2022-08-18T03:41:02.332Z,1.33
2022-08-18T03:43:51.183Z,1.37
2022-08-18T03:46:37.355Z,1.50
2022-08-18T03:49:22.833Z,1.40
2022-08-18T03:52:10.348Z,1.30
2022-08-18T03:54:55.999Z,1.50
2022-08-18T03:57:43.016Z,1.20
2022-08-18T04:00:33.772Z,1.30
2022-08-18T04:03:19.296Z,1.50
2022-08-18T04:06:07.760Z,1.40
2022-08-18T04:08:56.409Z,1.40
2022-08-18T04:11:43.411Z,1.50
2022-08-18T04:14:32.702Z,1.77
2022-08-18T04:17:26.338Z,1.50
2022-08-18T04:20:13.452Z,1.30
2022-08-18T04:22:59.036Z,1.33
2022-08-18T04:25:44.576Z,1.47
2022-08-18T04:28:30.568Z,1.37
2022-08-18T04:31:16.131Z,1.50
2022-08-18T04:34:02.417Z,1.30
2022-08-18T04:36:48.874Z,1.43
2022-08-18T04:39:34.377Z,1.27
2022-08-18T04:42:19.640Z,1.30
2022-08-18T04:45:06.919Z,1.30
2022-08-18T04:47:53.454Z,1.43
2022-08-18T04:50:39.822Z,1.30
2022-08-18T04:53:43.748Z,1.43
2022-08-18T04:56:38.629Z,1.30
2022-08-18T04:59:25.380Z,1.57
2022-08-18T05:02:14.677Z,1.30
2022-08-18T05:05:01.663Z,1.40
2022-08-18T05:07:48.130Z,1.30
2022-08-18T05:10:33.308Z,1.50
2022-08-18T05:13:18.687Z,1.43
2022-08-18T05:16:18.146Z,1.47
2022-08-18T05:19:07.083Z,1.20
2022-08-18T05:21:59.725Z,1.40
2022-08-18T05:24:47.025Z,1.40
2022-08-18T05:27:34.180Z,1.40
2022-08-18T05:30:19.794Z,1.27
2022-08-18T05:33:05.036Z,1.40
2022-08-18T05:36:02.075Z,1.30
2022-08-18T05:38:56.569Z,1.30
2022-08-18T05:41:47.052Z,1.50
2022-08-18T05:44:36.049Z,1.53
2022-08-18T05:47:32.366Z,1.43
2022-08-18T05:50:20.862Z,1.53
2022-08-18T05:53:13.758Z,1.57
2022-08-18T05:56:24.120Z,1.70
2022-08-18T05:59:11.932Z,1.77
2022-08-18T06:02:07.815Z,1.70
2022-08-18T06:04:57.166Z,1.60
2022-08-18T06:07:47.035Z,1.70
2022-08-18T06:10:32.893Z,1.57
2022-08-18T06:13:20.576Z,1.60
2022-08-18T06:16:18.982Z,1.50
2022-08-18T06:19:42.906Z,2.00
2022-08-18T06:22:29.849Z,1.40
2022-08-18T06:25:26.123Z,1.60
2022-08-18T06:28:17.098Z,1.83
2022-08-18T06:31:18.539Z,1.27
2022-08-18T06:34:25.619Z,1.57
2022-08-18T06:37:30.734Z,1.70
2022-08-18T06:40:16.514Z,1.70
2022-08-18T06:43:02.073Z,1.63
2022-08-18T06:45:52.232Z,1.90
2022-08-18T06:48:49.062Z,1.73
2022-08-18T06:51:40.133Z,1.80
2022-08-18T06:54:29.408Z,1.60
2022-08-18T06:57:28.049Z,1.70
2022-08-18T07:00:19.547Z,1.70
2022-08-18T07:03:14.473Z,1.80
2022-08-18T07:06:05.526Z,1.30
2022-08-18T07:08:54.039Z,1.80
2022-08-18T07:11:43.300Z,1.80
2022-08-18T07:14:29.088Z,1.60
2022-08-18T07:17:42.416Z,1.70
2022-08-18T07:20:30.457Z,1.90
2022-08-18T07:23:40.002Z,2.00
2022-08-18T07:26:25.601Z,1.83
2022-08-18T07:29:15.722Z,1.87
2022-08-18T07:32:11.406Z,1.90
2022-08-18T07:35:08.904Z,1.77
2022-08-18T07:38:00.579Z,1.63
2022-08-18T07:40:58.937Z,1.77
2022-08-18T07:43:57.019Z,1.50
2022-08-18T07:46:59.145Z,1.50
2022-08-18T07:50:13.882Z,2.07
2022-08-18T07:53:06.739Z,1.73
2022-08-18T07:56:02.276Z,1.70
2022-08-18T07:58:56.787Z,1.90
2022-08-18T08:01:54.707Z,1.90
2022-08-18T08:04:46.379Z,1.70
2022-08-18T08:07:54.151Z,1.90
2022-08-18T08:11:02.882Z,1.60
2022-08-18T08:13:56.357Z,1.97
2022-08-18T08:17:07.680Z,1.80
2022-08-18T08:20:08.373Z,1.60
2022-08-18T08:23:04.975Z,1.93
2022-08-18T08:26:13.208Z,1.73
2022-08-18T08:29:32.766Z,1.70
2022-08-18T08:32:27.510Z,1.70
2022-08-18T08:35:49.257Z,1.47
2022-08-18T08:38:45.219Z,1.60
2022-08-18T08:41:37.895Z,1.80
2022-08-18T08:44:58.086Z,1.80
2022-08-18T08:48:04.330Z,1.67
2022-08-18T08:51:01.896Z,1.80
2022-08-18T08:53:55.768Z,1.83
2022-08-18T08:56:45.861Z,1.70
2022-08-18T08:59:31.701Z,1.70
2022-08-18T09:02:58.995Z,1.50
2022-08-18T09:05:56.749Z,1.60
2022-08-18T09:08:48.565Z,1.83
2022-08-18T09:11:53.894Z,1.70
2022-08-18T09:15:16.685Z,1.80
2022-08-18T09:18:13.985Z,1.50
2022-08-18T09:21:05.462Z,1.67
2022-08-18T09:24:06.800Z,1.90
2022-08-18T09:26:53.940Z,1.60
2022-08-18T09:29:44.163Z,1.60
2022-08-18T09:32:57.267Z,1.67
2022-08-18T09:36:13.093Z,1.75
2022-08-18T09:39:26.610Z,1.70
2022-08-18T09:42:31.978Z,1.77
2022-08-18T09:45:34.058Z,1.60
2022-08-18T09:48:43.406Z,1.77
2022-08-18T09:51:33.847Z,1.50
2022-08-18T09:54:31.049Z,1.70
2022-08-18T09:57:24.488Z,1.60
2022-08-18T10:00:13.225Z,1.80
2022-08-18T10:03:03.514Z,1.50
2022-08-18T10:06:03.245Z,1.60
2022-08-18T10:09:02.454Z,1.50
2022-08-18T10:15:44.273Z,1.30
2022-08-18T10:19:00.708Z,1.40
2022-08-18T10:24:56.074Z,1.70
2022-08-18T10:27:52.924Z,1.40
2022-08-18T10:30:56.568Z,1.40
2022-08-18T10:34:19.404Z,1.40
2022-08-18T10:40:26.629Z,1.57
2022-08-18T10:43:55.136Z,1.57
2022-08-18T10:46:46.735Z,1.43
2022-08-18T10:49:33.270Z,1.37
2022-08-18T10:52:20.710Z,1.50
2022-08-18T10:55:16.317Z,1.50
2022-08-18T10:58:31.397Z,1.47
2022-08-18T11:01:30.890Z,1.53
2022-08-18T11:04:33.597Z,1.60
2022-08-18T11:07:24.951Z,1.53
2022-08-18T11:10:30.045Z,1.60
2022-08-18T11:13:34.896Z,1.70
2022-08-18T11:16:46.036Z,2.10
2022-08-18T11:19:42.186Z,2.43
2022-08-18T11:22:34.093Z,2.60
2022-08-18T11:25:28.091Z,3.27
2022-08-18T11:28:18.387Z,3.53
2022-08-18T11:31:06.529Z,3.70
2022-08-18T11:33:52.805Z,3.70
2022-08-18T11:36:49.836Z,4.80
2022-08-18T11:39:43.216Z,5.83
2022-08-18T11:42:41.792Z,4.60
2022-08-18T11:45:33.727Z,4.80
2022-08-18T11:51:34.359Z,5.17
2022-08-18T11:54:23.468Z,5.60
2022-08-18T11:57:46.619Z,6.07
2022-08-18T12:00:42.722Z,5.77
2022-08-18T12:03:44.927Z,5.27
2022-08-18T12:06:33.565Z,4.70
2022-08-18T12:09:45.532Z,5.10
2022-08-18T12:12:32.761Z,4.67
2022-08-18T12:15:23.925Z,5.10
2022-08-18T12:18:10.236Z,5.57
2022-08-18T12:21:04.361Z,6.37
2022-08-18T12:23:52.553Z,6.07
2022-08-18T12:29:44.757Z,6.67
2022-08-18T12:32:46.769Z,6.07
2022-08-18T12:35:36.194Z,6.60
2022-08-18T12:38:23.497Z,6.33
2022-08-18T12:41:12.157Z,6.10
2022-08-18T12:43:58.611Z,6.13
2022-08-18T12:46:44.414Z,6.80
2022-08-18T12:49:31.013Z,6.90
2022-08-18T12:52:17.265Z,6.93
2022-08-18T12:55:05.157Z,6.73
2022-08-18T12:57:53.800Z,6.77
2022-08-18T13:00:41.672Z,6.93
2022-08-18T13:03:28.747Z,7.33
2022-08-18T13:06:30.614Z,6.63
2022-08-18T13:09:35.306Z,7.60
2022-08-18T13:12:29.331Z,6.87
2022-08-18T13:15:18.866Z,6.90
2022-08-18T13:18:07.548Z,6.97
2022-08-18T13:21:07.190Z,7.17
2022-08-18T13:23:54.288Z,7.30
2022-08-18T13:26:47.554Z,7.20
2022-08-18T13:29:34.223Z,7.10
2022-08-18T13:32:22.104Z,6.93
2022-08-18T13:35:13.376Z,7.50
2022-08-18T13:37:59.737Z,6.63
2022-08-18T13:40:48.774Z,6.30
2022-08-18T13:43:39.303Z,7.87
2022-08-18T13:46:30.966Z,7.37
2022-08-18T13:49:23.533Z,7.23
2022-08-18T13:52:33.473Z,7.00
2022-08-18T13:55:21.297Z,6.63
2022-08-18T13:58:17.701Z,7.57
2022-08-18T14:01:44.407Z,6.50
2022-08-18T14:04:28.433Z,7.20
2022-08-18T14:07:18.685Z,7.50
2022-08-18T14:10:08.119Z,7.30
2022-08-18T14:13:01.791Z,7.07
2022-08-18T14:16:06.324Z,7.40
2022-08-18T14:19:14.528Z,6.80
2022-08-18T14:22:26.814Z,6.90
2022-08-18T14:25:32.144Z,6.97
2022-08-18T14:28:24.834Z,7.07
2022-08-18T14:31:12.535Z,6.95
2022-08-18T14:34:03.082Z,7.17
2022-08-18T14:36:50.108Z,8.43
2022-08-18T14:39:38.681Z,7.60
2022-08-18T14:42:41.274Z,7.80
2022-08-18T14:45:35.158Z,7.50
2022-08-18T14:48:23.287Z,7.70
2022-08-18T14:51:10.127Z,7.50
2022-08-18T14:53:56.308Z,7.47
2022-08-18T14:56:41.665Z,7.43
2022-08-18T14:59:30.860Z,7.33
2022-08-18T15:02:23.635Z,7.60
2022-08-18T15:05:19.421Z,7.20
2022-08-18T15:08:05.711Z,7.33
2022-08-18T15:10:52.794Z,7.07
2022-08-18T15:13:45.245Z,6.77
2022-08-18T15:16:34.998Z,8.00
2022-08-18T15:20:00.675Z,7.47
2022-08-18T15:22:48.708Z,7.20
2022-08-18T15:25:44.801Z,7.47
2022-08-18T15:28:30.552Z,7.23
2022-08-18T15:31:17.350Z,6.73
2022-08-18T15:34:06.453Z,7.47
2022-08-18T15:37:09.621Z,7.70
2022-08-18T15:40:21.890Z,6.80
2022-08-18T15:43:21.414Z,6.70
2022-08-18T15:46:11.265Z,7.20
2022-08-18T15:48:59.673Z,7.03
2022-08-18T15:51:47.817Z,7.00
2022-08-18T15:54:36.366Z,7.03
2022-08-18T15:57:23.768Z,7.87
2022-08-18T16:00:26.826Z,7.87
2022-08-18T16:03:14.609Z,8.17
2022-08-18T16:05:59.847Z,8.13
2022-08-18T16:08:45.237Z,7.60
2022-08-18T16:11:30.669Z,7.20
2022-08-18T16:14:16.331Z,7.90
2022-08-18T16:17:09.109Z,7.30
2022-08-18T16:19:59.107Z,6.93
2022-08-18T16:22:46.213Z,7.07
2022-08-18T16:25:32.538Z,6.70
2022-08-18T16:28:18.252Z,7.63
2022-08-18T16:31:04.603Z,6.70
2022-08-18T16:33:51.003Z,6.97
2022-08-18T16:36:36.972Z,6.73
2022-08-18T16:39:23.878Z,6.60
2022-08-18T16:42:09.003Z,7.37
2022-08-18T16:44:54.415Z,7.13
2022-08-18T16:47:41.280Z,6.90
2022-08-18T16:50:27.416Z,7.30
2022-08-18T16:53:12.788Z,7.20
2022-08-18T16:55:58.110Z,7.70
2022-08-18T16:59:02.480Z,6.60
2022-08-18T17:02:09.369Z,6.93
2022-08-18T17:04:55.070Z,7.80
2022-08-18T17:07:41.296Z,7.43
2022-08-18T17:10:27.268Z,7.40
2022-08-18T17:13:12.879Z,8.00
2022-08-18T17:16:00.202Z,8.10
2022-08-18T17:18:46.005Z,7.53
2022-08-18T17:24:31.288Z,7.30
2022-08-18T17:27:27.309Z,7.30
2022-08-18T17:30:16.658Z,7.60
2022-08-18T17:33:17.057Z,7.33
2022-08-18T17:36:08.632Z,7.20
2022-08-18T17:39:05.944Z,7.47
2022-08-18T17:42:14.110Z,7.43
2022-08-18T17:45:05.049Z,7.87
2022-08-18T17:48:02.644Z,7.53
2022-08-18T17:51:17.318Z,7.50
2022-08-18T17:54:24.136Z,7.90
2022-08-18T17:57:23.514Z,8.00
2022-08-18T18:00:17.005Z,7.73
2022-08-18T18:03:02.604Z,8.20
2022-08-18T18:05:54.186Z,8.50
2022-08-18T18:09:09.493Z,8.73
2022-08-18T18:11:55.139Z,8.70
2022-08-18T18:14:43.799Z,9.40
2022-08-18T18:17:37.739Z,9.07
2022-08-18T18:20:40.558Z,8.80
2022-08-18T18:23:41.715Z,8.23
2022-08-18T18:26:43.019Z,8.80
2022-08-18T18:29:37.691Z,8.70
2022-08-18T18:32:34.536Z,8.80
2022-08-18T18:35:27.792Z,9.07
2022-08-18T18:38:24.793Z,8.93
2022-08-18T18:41:13.167Z,8.77
2022-08-18T18:44:13.196Z,8.97
2022-08-18T18:47:08.944Z,8.93
2022-08-18T18:50:07.023Z,8.87
2022-08-18T18:53:18.872Z,9.10
2022-08-18T18:56:11.491Z,9.83
2022-08-18T18:59:25.620Z,10.03
2022-08-18T19:02:33.830Z,9.98
2022-08-18T19:05:29.555Z,10.63
2022-08-18T19:08:53.920Z,10.00
2022-08-18T19:11:53.723Z,9.90
2022-08-18T19:14:52.078Z,9.47
2022-08-18T19:17:53.853Z,10.07
2022-08-18T19:20:43.667Z,10.43
2022-08-18T19:23:54.282Z,10.80
2022-08-18T19:26:44.615Z,10.77
2022-08-18T19:29:35.117Z,10.37
2022-08-18T19:32:28.781Z,10.50
2022-08-18T19:35:24.876Z,10.10
2022-08-18T19:38:34.822Z,10.63
2022-08-18T19:41:49.766Z,10.43
2022-08-18T19:45:14.920Z,10.70
2022-08-18T19:51:13.389Z,10.70
2022-08-18T19:54:26.979Z,10.53
2022-08-18T19:57:23.638Z,10.00
2022-08-18T20:00:34.082Z,11.43
2022-08-18T20:03:33.684Z,10.93
2022-08-18T20:06:46.833Z,11.10
2022-08-18T20:09:43.969Z,11.27
2022-08-18T20:12:55.638Z,11.33
2022-08-18T20:16:10.530Z,10.63
2022-08-18T20:18:57.390Z,11.13
2022-08-18T20:21:47.502Z,11.47
2022-08-18T20:24:39.699Z,11.20
2022-08-18T20:27:41.531Z,11.02
2022-08-18T20:30:33.081Z,10.90
2022-08-18T20:33:25.870Z,11.33
2022-08-18T20:36:45.263Z,11.73
2022-08-18T20:39:32.222Z,12.20
2022-08-18T20:42:24.412Z,11.10
2022-08-18T20:45:22.590Z,11.68
2022-08-18T20:48:32.792Z,11.47
2022-08-18T20:51:27.915Z,11.73
2022-08-18T20:54:27.186Z,11.47
2022-08-18T20:57:13.849Z,11.17
2022-08-18T21:00:22.727Z,11.53
2022-08-18T21:03:15.407Z,11.80
2022-08-18T21:06:00.909Z,11.27
2022-08-18T21:08:52.276Z,11.33
2022-08-18T21:11:45.361Z,11.57
2022-08-18T21:14:33.412Z,11.48
2022-08-18T21:17:19.011Z,11.47
2022-08-18T21:20:08.269Z,11.03
2022-08-18T21:23:04.285Z,10.93
2022-08-18T21:25:54.796Z,11.10
2022-08-18T21:28:44.443Z,10.47
2022-08-18T21:31:44.144Z,10.87
2022-08-18T21:34:44.792Z,11.23
2022-08-18T21:37:32.833Z,11.47
2022-08-18T21:40:18.671Z,10.37
2022-08-18T21:43:06.063Z,10.73
2022-08-18T21:45:56.185Z,10.50
2022-08-18T21:48:51.011Z,10.90
2022-08-18T21:51:46.565Z,10.10
2022-08-18T21:54:34.339Z,11.07
2022-08-18T21:57:51.712Z,10.30
2022-08-18T22:00:39.920Z,10.60
2022-08-18T22:03:27.251Z,10.70
2022-08-18T22:06:21.947Z,10.40
2022-08-18T22:09:29.064Z,10.57
2022-08-18T22:12:54.976Z,11.23
2022-08-18T22:15:48.105Z,10.37
2022-08-18T22:18:39.651Z,10.23
2022-08-18T22:21:35.775Z,10.23
2022-08-18T22:24:29.884Z,10.57
2022-08-18T22:27:21.210Z,10.63
2022-08-18T22:30:06.990Z,10.60
2022-08-18T22:32:53.164Z,10.90
2022-08-18T22:35:40.046Z,10.33
2022-08-18T22:38:29.223Z,11.10
2022-08-18T22:41:16.441Z,10.37
2022-08-18T22:44:05.533Z,10.00
2022-08-18T22:46:51.264Z,10.40
2022-08-18T22:49:37.451Z,10.27
2022-08-18T22:52:40.530Z,9.90
2022-08-18T22:55:26.033Z,9.65
2022-08-18T22:58:16.004Z,9.83
2022-08-18T23:01:09.171Z,10.90
2022-08-18T23:03:54.311Z,10.30
2022-08-18T23:06:39.501Z,10.13
2022-08-18T23:09:28.442Z,9.97
2022-08-18T23:12:15.039Z,9.73
2022-08-18T23:15:06.483Z,10.33
2022-08-18T23:17:52.693Z,10.07
2022-08-18T23:20:41.054Z,10.97
2022-08-18T23:23:29.033Z,9.77
2022-08-18T23:26:14.400Z,10.53
2022-08-18T23:28:59.849Z,10.47
2022-08-18T23:31:45.772Z,10.40
2022-08-18T23:34:31.733Z,9.70
2022-08-18T23:37:16.927Z,10.00
2022-08-18T23:40:02.552Z,9.53
2022-08-18T23:42:51.489Z,10.00
2022-08-18T23:45:38.814Z,9.90
2022-08-18T23:48:24.290Z,9.57
2022-08-18T23:51:09.564Z,9.80
2022-08-18T23:53:58.862Z,9.60
2022-08-18T23:56:46.611Z,10.17
2022-08-18T23:59:32.202Z,9.93
